sensor_id;sensor_type;location;lat;lon;timestamp;temperature;humidity
15426;DHT22;7812;50.072;7.036;2023-02-02T00:00:14;5.80;99.90
15426;DHT22;7812;50.072;7.036;2023-02-02T00:02:39;5.80;99.90
15426;DHT22;7812;50.072;7.036;2023-02-02T00:05:06;5.80;99.90
15426;DHT22;7812;50.072;7.036;2023-02-02T00:07:31;5.80;99.90
15426;DHT22;7812;50.072;7.036;2023-02-02T00:09:57;5.80;99.90
15426;DHT22;7812;50.072;7.036;2023-02-02T00:12:23;5.90;99.90
15426;DHT22;7812;50.072;7.036;2023-02-02T00:14:48;5.80;99.90
15426;DHT22;7812;50.072;7.036;2023-02-02T00:17:14;5.80;99.90
15426;DHT22;7812;50.072;7.036;2023-02-02T00:19:47;5.80;99.90
15426;DHT22;7812;50.072;7.036;2023-02-02T00:22:23;5.80;99.90
15426;DHT22;7812;50.072;7.036;2023-02-02T00:24:49;5.80;99.90
15426;DHT22;7812;50.072;7.036;2023-02-02T00:27:15;5.80;99.90
15426;DHT22;7812;50.072;7.036;2023-02-02T00:29:41;5.80;99.90
15426;DHT22;7812;50.072;7.036;2023-02-02T00:32:06;5.80;99.90
15426;DHT22;7812;50.072;7.036;2023-02-02T00:34:32;5.90;99.90
15426;DHT22;7812;50.072;7.036;2023-02-02T00:36:58;5.80;99.90
15426;DHT22;7812;50.072;7.036;2023-02-02T00:39:24;5.90;99.90
15426;DHT22;7812;50.072;7.036;2023-02-02T00:41:52;5.90;99.90
15426;DHT22;7812;50.072;7.036;2023-02-02T00:44:17;5.90;99.90
15426;DHT22;7812;50.072;7.036;2023-02-02T00:47:02;5.90;99.90
15426;DHT22;7812;50.072;7.036;2023-02-02T00:49:28;5.90;99.90
15426;DHT22;7812;50.072;7.036;2023-02-02T00:51:54;5.90;99.90
15426;DHT22;7812;50.072;7.036;2023-02-02T00:54:20;5.90;99.90
15426;DHT22;7812;50.072;7.036;2023-02-02T00:56:46;5.90;99.90
15426;DHT22;7812;50.072;7.036;2023-02-02T00:59:11;5.90;99.90
15426;DHT22;7812;50.072;7.036;2023-02-02T01:01:39;5.90;99.90
15426;DHT22;7812;50.072;7.036;2023-02-02T01:04:05;5.90;99.90
15426;DHT22;7812;50.072;7.036;2023-02-02T01:06:31;5.90;99.90
15426;DHT22;7812;50.072;7.036;2023-02-02T01:08:56;6.00;99.90
15426;DHT22;7812;50.072;7.036;2023-02-02T01:11:23;5.90;99.90
15426;DHT22;7812;50.072;7.036;2023-02-02T01:13:52;6.00;99.90
15426;DHT22;7812;50.072;7.036;2023-02-02T01:16:18;6.00;99.90
15426;DHT22;7812;50.072;7.036;2023-02-02T01:18:47;6.00;99.90
15426;DHT22;7812;50.072;7.036;2023-02-02T01:21:12;6.00;99.90
15426;DHT22;7812;50.072;7.036;2023-02-02T01:23:39;6.00;99.90
15426;DHT22;7812;50.072;7.036;2023-02-02T01:26:06;6.00;99.90
15426;DHT22;7812;50.072;7.036;2023-02-02T01:28:33;6.10;99.90
15426;DHT22;7812;50.072;7.036;2023-02-02T01:31:10;6.10;99.90
15426;DHT22;7812;50.072;7.036;2023-02-02T01:33:36;6.10;99.90
15426;DHT22;7812;50.072;7.036;2023-02-02T01:36:05;6.00;99.90
15426;DHT22;7812;50.072;7.036;2023-02-02T01:38:32;6.10;99.90
15426;DHT22;7812;50.072;7.036;2023-02-02T01:40:58;6.00;99.90
15426;DHT22;7812;50.072;7.036;2023-02-02T01:45:58;6.10;99.90
15426;DHT22;7812;50.072;7.036;2023-02-02T01:48:30;6.10;99.90
15426;DHT22;7812;50.072;7.036;2023-02-02T01:51:00;6.10;99.90
15426;DHT22;7812;50.072;7.036;2023-02-02T01:53:27;6.10;99.90
15426;DHT22;7812;50.072;7.036;2023-02-02T01:55:53;6.10;99.90
15426;DHT22;7812;50.072;7.036;2023-02-02T01:58:26;6.10;99.90
15426;DHT22;7812;50.072;7.036;2023-02-02T02:00:53;6.00;99.90
15426;DHT22;7812;50.072;7.036;2023-02-02T02:03:24;6.00;99.90
15426;DHT22;7812;50.072;7.036;2023-02-02T02:05:52;6.10;99.90
15426;DHT22;7812;50.072;7.036;2023-02-02T02:08:22;6.10;99.90
15426;DHT22;7812;50.072;7.036;2023-02-02T02:10:49;6.10;99.90
15426;DHT22;7812;50.072;7.036;2023-02-02T02:13:16;6.10;99.90
15426;DHT22;7812;50.072;7.036;2023-02-02T02:15:59;6.10;99.90
15426;DHT22;7812;50.072;7.036;2023-02-02T02:21:32;6.10;99.90
15426;DHT22;7812;50.072;7.036;2023-02-02T02:36:16;6.20;99.90
15426;DHT22;7812;50.072;7.036;2023-02-02T02:41:25;6.30;99.90
15426;DHT22;7812;50.072;7.036;2023-02-02T02:43:58;6.20;99.90
15426;DHT22;7812;50.072;7.036;2023-02-02T02:46:25;6.20;99.90
15426;DHT22;7812;50.072;7.036;2023-02-02T02:48:54;6.20;99.90
15426;DHT22;7812;50.072;7.036;2023-02-02T03:07:21;6.30;99.90
15426;DHT22;7812;50.072;7.036;2023-02-02T03:09:49;6.30;99.90
15426;DHT22;7812;50.072;7.036;2023-02-02T03:12:16;6.30;99.90
15426;DHT22;7812;50.072;7.036;2023-02-02T03:14:42;6.30;99.90
15426;DHT22;7812;50.072;7.036;2023-02-02T03:17:08;6.20;99.90
15426;DHT22;7812;50.072;7.036;2023-02-02T03:19:33;6.20;99.90
15426;DHT22;7812;50.072;7.036;2023-02-02T03:21:59;6.20;99.90
15426;DHT22;7812;50.072;7.036;2023-02-02T03:24:25;6.20;99.90
15426;DHT22;7812;50.072;7.036;2023-02-02T03:26:51;6.30;99.90
15426;DHT22;7812;50.072;7.036;2023-02-02T03:29:17;6.30;99.90
15426;DHT22;7812;50.072;7.036;2023-02-02T03:31:44;6.20;99.90
15426;DHT22;7812;50.072;7.036;2023-02-02T03:34:12;6.20;99.90
15426;DHT22;7812;50.072;7.036;2023-02-02T03:36:38;6.20;99.90
15426;DHT22;7812;50.072;7.036;2023-02-02T03:39:06;6.20;99.90
15426;DHT22;7812;50.072;7.036;2023-02-02T03:41:32;6.20;99.90
15426;DHT22;7812;50.072;7.036;2023-02-02T03:43:58;6.20;99.90
15426;DHT22;7812;50.072;7.036;2023-02-02T03:46:24;6.10;99.90
15426;DHT22;7812;50.072;7.036;2023-02-02T03:48:50;6.10;99.90
15426;DHT22;7812;50.072;7.036;2023-02-02T03:51:15;6.10;99.90
15426;DHT22;7812;50.072;7.036;2023-02-02T03:53:41;6.10;99.90
15426;DHT22;7812;50.072;7.036;2023-02-02T03:56:12;6.10;99.90
15426;DHT22;7812;50.072;7.036;2023-02-02T03:58:38;6.10;99.90
15426;DHT22;7812;50.072;7.036;2023-02-02T04:01:06;6.10;99.90
15426;DHT22;7812;50.072;7.036;2023-02-02T04:03:35;6.10;99.90
15426;DHT22;7812;50.072;7.036;2023-02-02T04:07:03;6.10;99.90
15426;DHT22;7812;50.072;7.036;2023-02-02T04:09:23;6.10;99.90
15426;DHT22;7812;50.072;7.036;2023-02-02T04:11:50;6.10;99.90
15426;DHT22;7812;50.072;7.036;2023-02-02T04:14:15;6.10;99.90
15426;DHT22;7812;50.072;7.036;2023-02-02T04:16:41;6.10;99.90
15426;DHT22;7812;50.072;7.036;2023-02-02T04:19:07;6.10;99.90
15426;DHT22;7812;50.072;7.036;2023-02-02T04:21:32;6.10;99.90
15426;DHT22;7812;50.072;7.036;2023-02-02T04:23:58;6.20;99.90
15426;DHT22;7812;50.072;7.036;2023-02-02T04:26:25;6.20;99.90
15426;DHT22;7812;50.072;7.036;2023-02-02T04:28:53;6.20;99.90
15426;DHT22;7812;50.072;7.036;2023-02-02T04:31:25;6.20;99.90
15426;DHT22;7812;50.072;7.036;2023-02-02T04:33:51;6.20;99.90
15426;DHT22;7812;50.072;7.036;2023-02-02T04:36:17;6.20;99.90
15426;DHT22;7812;50.072;7.036;2023-02-02T04:38:43;6.20;99.90
15426;DHT22;7812;50.072;7.036;2023-02-02T04:41:11;6.20;99.90
15426;DHT22;7812;50.072;7.036;2023-02-02T04:43:39;6.20;99.90
15426;DHT22;7812;50.072;7.036;2023-02-02T04:46:05;6.20;99.90
15426;DHT22;7812;50.072;7.036;2023-02-02T04:48:30;6.20;99.90
15426;DHT22;7812;50.072;7.036;2023-02-02T04:51:01;6.20;99.90
15426;DHT22;7812;50.072;7.036;2023-02-02T04:53:30;6.20;99.90
15426;DHT22;7812;50.072;7.036;2023-02-02T04:55:56;6.20;99.90
15426;DHT22;7812;50.072;7.036;2023-02-02T04:58:22;6.20;99.90
15426;DHT22;7812;50.072;7.036;2023-02-02T05:00:49;6.20;99.90
15426;DHT22;7812;50.072;7.036;2023-02-02T05:03:14;6.20;99.90
15426;DHT22;7812;50.072;7.036;2023-02-02T05:05:40;6.20;99.90
15426;DHT22;7812;50.072;7.036;2023-02-02T05:08:06;6.20;99.90
15426;DHT22;7812;50.072;7.036;2023-02-02T05:10:34;6.10;99.90
15426;DHT22;7812;50.072;7.036;2023-02-02T05:12:59;6.10;99.90
15426;DHT22;7812;50.072;7.036;2023-02-02T05:15:26;6.10;99.90
15426;DHT22;7812;50.072;7.036;2023-02-02T05:17:52;6.10;99.90
15426;DHT22;7812;50.072;7.036;2023-02-02T05:20:17;6.10;99.90
15426;DHT22;7812;50.072;7.036;2023-02-02T05:22:43;6.10;99.90
15426;DHT22;7812;50.072;7.036;2023-02-02T05:25:09;6.10;99.90
15426;DHT22;7812;50.072;7.036;2023-02-02T05:27:35;6.00;99.90
15426;DHT22;7812;50.072;7.036;2023-02-02T05:30:00;6.00;99.90
15426;DHT22;7812;50.072;7.036;2023-02-02T05:32:26;6.00;99.90
15426;DHT22;7812;50.072;7.036;2023-02-02T05:34:59;6.00;99.90
15426;DHT22;7812;50.072;7.036;2023-02-02T05:37:25;6.00;99.90
15426;DHT22;7812;50.072;7.036;2023-02-02T05:39:50;6.00;99.90
15426;DHT22;7812;50.072;7.036;2023-02-02T05:42:18;6.00;99.90
15426;DHT22;7812;50.072;7.036;2023-02-02T05:44:44;6.00;99.90
15426;DHT22;7812;50.072;7.036;2023-02-02T05:47:10;6.00;99.90
15426;DHT22;7812;50.072;7.036;2023-02-02T05:49:36;6.10;99.90
15426;DHT22;7812;50.072;7.036;2023-02-02T05:52:01;6.00;99.90
15426;DHT22;7812;50.072;7.036;2023-02-02T05:54:27;6.00;99.90
15426;DHT22;7812;50.072;7.036;2023-02-02T05:56:53;6.10;99.90
15426;DHT22;7812;50.072;7.036;2023-02-02T05:59:20;6.10;99.90
15426;DHT22;7812;50.072;7.036;2023-02-02T06:01:47;6.10;99.90
15426;DHT22;7812;50.072;7.036;2023-02-02T06:04:17;6.10;99.90
15426;DHT22;7812;50.072;7.036;2023-02-02T06:06:43;6.10;99.90
15426;DHT22;7812;50.072;7.036;2023-02-02T06:09:09;6.10;99.90
15426;DHT22;7812;50.072;7.036;2023-02-02T06:11:35;6.10;99.90
15426;DHT22;7812;50.072;7.036;2023-02-02T06:14:01;6.10;99.90
15426;DHT22;7812;50.072;7.036;2023-02-02T06:16:26;6.10;99.90
15426;DHT22;7812;50.072;7.036;2023-02-02T06:18:52;6.10;99.90
15426;DHT22;7812;50.072;7.036;2023-02-02T06:21:18;6.20;99.90
15426;DHT22;7812;50.072;7.036;2023-02-02T06:23:51;6.10;99.90
15426;DHT22;7812;50.072;7.036;2023-02-02T06:26:17;6.10;99.90
15426;DHT22;7812;50.072;7.036;2023-02-02T06:28:47;6.10;99.90
15426;DHT22;7812;50.072;7.036;2023-02-02T06:31:13;6.10;99.90
15426;DHT22;7812;50.072;7.036;2023-02-02T06:33:46;6.10;99.90
15426;DHT22;7812;50.072;7.036;2023-02-02T06:36:13;6.10;99.90
15426;DHT22;7812;50.072;7.036;2023-02-02T06:38:39;6.20;99.90
15426;DHT22;7812;50.072;7.036;2023-02-02T06:41:05;6.20;99.90
15426;DHT22;7812;50.072;7.036;2023-02-02T06:43:32;6.20;99.90
15426;DHT22;7812;50.072;7.036;2023-02-02T06:46:01;6.20;99.90
15426;DHT22;7812;50.072;7.036;2023-02-02T06:48:27;6.20;99.90
15426;DHT22;7812;50.072;7.036;2023-02-02T06:50:56;6.20;99.90
15426;DHT22;7812;50.072;7.036;2023-02-02T06:53:21;6.20;99.90
15426;DHT22;7812;50.072;7.036;2023-02-02T06:55:58;6.20;99.90
15426;DHT22;7812;50.072;7.036;2023-02-02T06:58:25;6.20;99.90
15426;DHT22;7812;50.072;7.036;2023-02-02T07:00:52;6.30;99.90
15426;DHT22;7812;50.072;7.036;2023-02-02T07:03:19;6.30;99.90
15426;DHT22;7812;50.072;7.036;2023-02-02T07:05:48;6.30;99.90
15426;DHT22;7812;50.072;7.036;2023-02-02T07:08:17;6.30;99.90
15426;DHT22;7812;50.072;7.036;2023-02-02T07:10:43;6.30;99.90
15426;DHT22;7812;50.072;7.036;2023-02-02T07:13:09;6.30;99.90
15426;DHT22;7812;50.072;7.036;2023-02-02T07:15:38;6.30;99.90
15426;DHT22;7812;50.072;7.036;2023-02-02T07:18:04;6.30;99.90
15426;DHT22;7812;50.072;7.036;2023-02-02T07:20:30;6.30;99.90
15426;DHT22;7812;50.072;7.036;2023-02-02T07:22:56;6.30;99.90
15426;DHT22;7812;50.072;7.036;2023-02-02T07:25:25;6.30;99.90
15426;DHT22;7812;50.072;7.036;2023-02-02T07:27:53;6.30;99.90
15426;DHT22;7812;50.072;7.036;2023-02-02T07:30:20;6.40;99.90
15426;DHT22;7812;50.072;7.036;2023-02-02T07:32:49;6.40;99.90
15426;DHT22;7812;50.072;7.036;2023-02-02T07:35:15;6.40;99.90
15426;DHT22;7812;50.072;7.036;2023-02-02T07:37:42;6.40;99.90
15426;DHT22;7812;50.072;7.036;2023-02-02T07:40:08;6.30;99.90
15426;DHT22;7812;50.072;7.036;2023-02-02T07:42:36;6.30;99.90
15426;DHT22;7812;50.072;7.036;2023-02-02T07:45:02;6.40;99.90
15426;DHT22;7812;50.072;7.036;2023-02-02T07:47:30;6.40;99.90
15426;DHT22;7812;50.072;7.036;2023-02-02T07:49:55;6.40;99.90
15426;DHT22;7812;50.072;7.036;2023-02-02T07:52:21;6.40;99.90
15426;DHT22;7812;50.072;7.036;2023-02-02T07:54:48;6.30;99.90
15426;DHT22;7812;50.072;7.036;2023-02-02T07:57:16;6.30;99.90
15426;DHT22;7812;50.072;7.036;2023-02-02T07:59:42;6.40;99.90
15426;DHT22;7812;50.072;7.036;2023-02-02T08:02:09;6.40;99.90
15426;DHT22;7812;50.072;7.036;2023-02-02T08:04:34;6.40;99.90
15426;DHT22;7812;50.072;7.036;2023-02-02T08:07:00;6.30;99.90
15426;DHT22;7812;50.072;7.036;2023-02-02T08:09:26;6.40;99.90
15426;DHT22;7812;50.072;7.036;2023-02-02T08:11:51;6.40;99.90
15426;DHT22;7812;50.072;7.036;2023-02-02T08:14:18;6.50;99.90
15426;DHT22;7812;50.072;7.036;2023-02-02T08:16:43;6.60;99.90
15426;DHT22;7812;50.072;7.036;2023-02-02T08:19:10;6.60;99.90
15426;DHT22;7812;50.072;7.036;2023-02-02T08:21:35;6.70;99.90
15426;DHT22;7812;50.072;7.036;2023-02-02T08:24:02;6.70;99.90
15426;DHT22;7812;50.072;7.036;2023-02-02T08:26:30;6.70;99.90
15426;DHT22;7812;50.072;7.036;2023-02-02T08:28:58;6.60;99.90
15426;DHT22;7812;50.072;7.036;2023-02-02T08:31:30;6.60;99.90
15426;DHT22;7812;50.072;7.036;2023-02-02T08:33:56;6.60;99.90
15426;DHT22;7812;50.072;7.036;2023-02-02T08:36:24;6.60;99.90
15426;DHT22;7812;50.072;7.036;2023-02-02T08:38:50;6.70;99.90
15426;DHT22;7812;50.072;7.036;2023-02-02T08:41:22;6.70;99.90
15426;DHT22;7812;50.072;7.036;2023-02-02T08:43:49;6.70;99.90
15426;DHT22;7812;50.072;7.036;2023-02-02T08:46:16;6.70;99.90
15426;DHT22;7812;50.072;7.036;2023-02-02T08:48:42;6.80;99.90
15426;DHT22;7812;50.072;7.036;2023-02-02T08:51:11;6.80;99.90
15426;DHT22;7812;50.072;7.036;2023-02-02T08:53:38;6.80;99.90
15426;DHT22;7812;50.072;7.036;2023-02-02T08:56:08;6.80;99.90
15426;DHT22;7812;50.072;7.036;2023-02-02T08:58:34;6.80;99.90
15426;DHT22;7812;50.072;7.036;2023-02-02T09:01:10;6.80;99.90
15426;DHT22;7812;50.072;7.036;2023-02-02T09:03:37;6.70;99.90
15426;DHT22;7812;50.072;7.036;2023-02-02T09:06:16;6.70;99.90
15426;DHT22;7812;50.072;7.036;2023-02-02T09:08:42;6.70;99.90
15426;DHT22;7812;50.072;7.036;2023-02-02T09:11:14;6.70;99.90
15426;DHT22;7812;50.072;7.036;2023-02-02T09:13:42;6.70;99.90
15426;DHT22;7812;50.072;7.036;2023-02-02T09:16:11;6.70;99.90
15426;DHT22;7812;50.072;7.036;2023-02-02T09:18:39;6.70;99.90
15426;DHT22;7812;50.072;7.036;2023-02-02T09:21:06;6.60;99.90
15426;DHT22;7812;50.072;7.036;2023-02-02T09:23:34;6.70;99.90
15426;DHT22;7812;50.072;7.036;2023-02-02T09:26:13;6.60;99.90
15426;DHT22;7812;50.072;7.036;2023-02-02T09:28:42;6.60;99.90
15426;DHT22;7812;50.072;7.036;2023-02-02T09:31:08;6.60;99.90
15426;DHT22;7812;50.072;7.036;2023-02-02T09:33:35;6.70;99.90
15426;DHT22;7812;50.072;7.036;2023-02-02T09:38:36;6.70;99.90
15426;DHT22;7812;50.072;7.036;2023-02-02T09:44:02;6.70;99.90
15426;DHT22;7812;50.072;7.036;2023-02-02T09:49:07;6.90;99.90
15426;DHT22;7812;50.072;7.036;2023-02-02T09:51:39;7.00;99.90
15426;DHT22;7812;50.072;7.036;2023-02-02T09:54:26;7.00;99.90
15426;DHT22;7812;50.072;7.036;2023-02-02T09:56:55;7.10;99.90
15426;DHT22;7812;50.072;7.036;2023-02-02T09:59:27;7.30;99.90
15426;DHT22;7812;50.072;7.036;2023-02-02T10:01:56;7.40;99.90
15426;DHT22;7812;50.072;7.036;2023-02-02T10:07:08;7.40;99.90
15426;DHT22;7812;50.072;7.036;2023-02-02T10:15:36;7.40;99.90
15426;DHT22;7812;50.072;7.036;2023-02-02T10:23:28;7.50;99.90
15426;DHT22;7812;50.072;7.036;2023-02-02T10:31:47;7.50;99.90
15426;DHT22;7812;50.072;7.036;2023-02-02T10:43:13;7.50;99.90
15426;DHT22;7812;50.072;7.036;2023-02-02T10:46:00;7.50;99.90
15426;DHT22;7812;50.072;7.036;2023-02-02T10:48:30;7.60;99.90
15426;DHT22;7812;50.072;7.036;2023-02-02T10:51:03;7.80;99.90
15426;DHT22;7812;50.072;7.036;2023-02-02T10:53:32;7.90;99.90
15426;DHT22;7812;50.072;7.036;2023-02-02T11:01:20;8.00;99.90
15426;DHT22;7812;50.072;7.036;2023-02-02T11:03:48;8.10;99.90
15426;DHT22;7812;50.072;7.036;2023-02-02T11:06:34;8.10;99.90
15426;DHT22;7812;50.072;7.036;2023-02-02T11:09:21;8.20;99.90
15426;DHT22;7812;50.072;7.036;2023-02-02T11:12:09;8.10;99.90
15426;DHT22;7812;50.072;7.036;2023-02-02T11:14:48;8.10;99.90
15426;DHT22;7812;50.072;7.036;2023-02-02T11:17:24;8.10;99.90
15426;DHT22;7812;50.072;7.036;2023-02-02T11:19:50;8.00;99.90
15426;DHT22;7812;50.072;7.036;2023-02-02T11:22:27;7.90;99.90
15426;DHT22;7812;50.072;7.036;2023-02-02T11:24:54;8.00;99.90
15426;DHT22;7812;50.072;7.036;2023-02-02T11:27:23;8.00;99.90
15426;DHT22;7812;50.072;7.036;2023-02-02T11:29:55;8.00;99.90
15426;DHT22;7812;50.072;7.036;2023-02-02T11:37:30;7.90;99.90
15426;DHT22;7812;50.072;7.036;2023-02-02T11:42:51;7.90;99.90
15426;DHT22;7812;50.072;7.036;2023-02-02T11:45:40;8.00;99.90
15426;DHT22;7812;50.072;7.036;2023-02-02T11:50:44;8.00;99.90
15426;DHT22;7812;50.072;7.036;2023-02-02T11:53:46;8.00;99.90
15426;DHT22;7812;50.072;7.036;2023-02-02T11:56:21;8.10;99.90
15426;DHT22;7812;50.072;7.036;2023-02-02T11:58:51;8.00;99.90
15426;DHT22;7812;50.072;7.036;2023-02-02T12:01:24;8.00;99.90
15426;DHT22;7812;50.072;7.036;2023-02-02T12:03:54;7.90;99.90
15426;DHT22;7812;50.072;7.036;2023-02-02T12:06:35;8.10;99.90
15426;DHT22;7812;50.072;7.036;2023-02-02T12:09:11;8.30;99.90
15426;DHT22;7812;50.072;7.036;2023-02-02T12:14:41;8.30;99.90
15426;DHT22;7812;50.072;7.036;2023-02-02T12:37:01;8.20;99.90
15426;DHT22;7812;50.072;7.036;2023-02-02T12:42:22;8.30;99.90
15426;DHT22;7812;50.072;7.036;2023-02-02T12:55:59;8.10;99.90
15426;DHT22;7812;50.072;7.036;2023-02-02T13:15:41;8.00;99.90
15426;DHT22;7812;50.072;7.036;2023-02-02T13:18:19;8.00;99.90
15426;DHT22;7812;50.072;7.036;2023-02-02T13:20:55;8.00;99.90
15426;DHT22;7812;50.072;7.036;2023-02-02T13:23:47;8.00;99.90
15426;DHT22;7812;50.072;7.036;2023-02-02T13:26:19;8.00;99.90
15426;DHT22;7812;50.072;7.036;2023-02-02T13:29:00;8.00;99.90
15426;DHT22;7812;50.072;7.036;2023-02-02T13:34:26;8.00;99.90
15426;DHT22;7812;50.072;7.036;2023-02-02T13:36:58;8.00;99.90
15426;DHT22;7812;50.072;7.036;2023-02-02T13:39:37;8.00;99.90
15426;DHT22;7812;50.072;7.036;2023-02-02T13:42:05;8.00;99.90
15426;DHT22;7812;50.072;7.036;2023-02-02T13:44:48;8.10;99.90
15426;DHT22;7812;50.072;7.036;2023-02-02T13:47:47;8.10;99.90
15426;DHT22;7812;50.072;7.036;2023-02-02T13:50:14;8.20;99.90
15426;DHT22;7812;50.072;7.036;2023-02-02T13:52:54;8.30;99.90
15426;DHT22;7812;50.072;7.036;2023-02-02T14:01:11;8.30;99.90
15426;DHT22;7812;50.072;7.036;2023-02-02T14:03:40;8.20;99.90
15426;DHT22;7812;50.072;7.036;2023-02-02T14:06:14;8.20;99.90
15426;DHT22;7812;50.072;7.036;2023-02-02T14:08:55;8.30;99.90
15426;DHT22;7812;50.072;7.036;2023-02-02T14:11:34;8.20;99.90
15426;DHT22;7812;50.072;7.036;2023-02-02T14:14:19;8.30;99.90
15426;DHT22;7812;50.072;7.036;2023-02-02T14:17:02;8.30;99.90
15426;DHT22;7812;50.072;7.036;2023-02-02T14:22:36;8.40;99.90
15426;DHT22;7812;50.072;7.036;2023-02-02T14:25:44;8.40;99.90
15426;DHT22;7812;50.072;7.036;2023-02-02T14:27:57;8.40;99.90
15426;DHT22;7812;50.072;7.036;2023-02-02T14:30:30;8.40;99.90
15426;DHT22;7812;50.072;7.036;2023-02-02T14:38:31;8.60;99.90
15426;DHT22;7812;50.072;7.036;2023-02-02T14:44:06;8.50;99.90
15426;DHT22;7812;50.072;7.036;2023-02-02T14:46:38;8.50;99.90
15426;DHT22;7812;50.072;7.036;2023-02-02T14:51:31;8.50;99.90
15426;DHT22;7812;50.072;7.036;2023-02-02T14:54:04;8.50;99.90
15426;DHT22;7812;50.072;7.036;2023-02-02T14:56:46;8.50;99.90
15426;DHT22;7812;50.072;7.036;2023-02-02T14:59:23;8.50;99.90
15426;DHT22;7812;50.072;7.036;2023-02-02T15:02:37;8.40;99.90
15426;DHT22;7812;50.072;7.036;2023-02-02T15:05:41;8.40;99.90
15426;DHT22;7812;50.072;7.036;2023-02-02T15:08:21;8.40;99.90
15426;DHT22;7812;50.072;7.036;2023-02-02T15:13:20;8.40;99.90
15426;DHT22;7812;50.072;7.036;2023-02-02T15:15:48;8.40;99.90
15426;DHT22;7812;50.072;7.036;2023-02-02T15:18:36;8.40;99.90
15426;DHT22;7812;50.072;7.036;2023-02-02T15:21:05;8.40;99.90
15426;DHT22;7812;50.072;7.036;2023-02-02T15:23:35;8.30;99.90
15426;DHT22;7812;50.072;7.036;2023-02-02T15:26:22;8.30;99.90
15426;DHT22;7812;50.072;7.036;2023-02-02T15:28:58;8.30;99.90
15426;DHT22;7812;50.072;7.036;2023-02-02T15:31:36;8.30;99.90
15426;DHT22;7812;50.072;7.036;2023-02-02T15:34:38;8.30;99.90
15426;DHT22;7812;50.072;7.036;2023-02-02T15:37:04;8.30;99.90
15426;DHT22;7812;50.072;7.036;2023-02-02T15:39:46;8.20;99.90
15426;DHT22;7812;50.072;7.036;2023-02-02T15:42:28;8.20;99.90
15426;DHT22;7812;50.072;7.036;2023-02-02T15:45:28;8.20;99.90
15426;DHT22;7812;50.072;7.036;2023-02-02T15:47:58;8.20;99.90
15426;DHT22;7812;50.072;7.036;2023-02-02T15:50:24;8.20;99.90
15426;DHT22;7812;50.072;7.036;2023-02-02T15:52:52;8.20;99.90
15426;DHT22;7812;50.072;7.036;2023-02-02T15:55:20;8.20;99.90
15426;DHT22;7812;50.072;7.036;2023-02-02T15:57:47;8.10;99.90
15426;DHT22;7812;50.072;7.036;2023-02-02T16:03:00;8.10;99.90
15426;DHT22;7812;50.072;7.036;2023-02-02T16:08:03;8.00;99.90
15426;DHT22;7812;50.072;7.036;2023-02-02T16:10:30;8.00;99.90
15426;DHT22;7812;50.072;7.036;2023-02-02T16:12:56;8.00;99.90
15426;DHT22;7812;50.072;7.036;2023-02-02T16:15:26;8.00;99.90
15426;DHT22;7812;50.072;7.036;2023-02-02T16:17:59;7.90;99.90
15426;DHT22;7812;50.072;7.036;2023-02-02T16:20:27;7.90;99.90
15426;DHT22;7812;50.072;7.036;2023-02-02T16:22:57;7.90;99.90
15426;DHT22;7812;50.072;7.036;2023-02-02T16:25:29;7.90;99.90
15426;DHT22;7812;50.072;7.036;2023-02-02T16:27:56;7.90;99.90
15426;DHT22;7812;50.072;7.036;2023-02-02T16:30:35;7.90;99.90
15426;DHT22;7812;50.072;7.036;2023-02-02T16:33:33;7.90;99.90
15426;DHT22;7812;50.072;7.036;2023-02-02T16:35:59;7.80;99.90
15426;DHT22;7812;50.072;7.036;2023-02-02T16:38:30;7.80;99.90
15426;DHT22;7812;50.072;7.036;2023-02-02T16:44:38;7.80;99.90
15426;DHT22;7812;50.072;7.036;2023-02-02T16:47:06;7.80;99.90
15426;DHT22;7812;50.072;7.036;2023-02-02T16:49:33;7.80;99.90
15426;DHT22;7812;50.072;7.036;2023-02-02T16:54:38;7.80;99.90
15426;DHT22;7812;50.072;7.036;2023-02-02T16:57:04;7.80;99.90
15426;DHT22;7812;50.072;7.036;2023-02-02T16:59:35;7.80;99.90
15426;DHT22;7812;50.072;7.036;2023-02-02T17:02:30;7.80;99.90
15426;DHT22;7812;50.072;7.036;2023-02-02T17:07:26;7.80;99.90
15426;DHT22;7812;50.072;7.036;2023-02-02T17:10:26;7.70;99.90
15426;DHT22;7812;50.072;7.036;2023-02-02T17:12:56;7.70;99.90
15426;DHT22;7812;50.072;7.036;2023-02-02T17:15:33;7.70;99.90
15426;DHT22;7812;50.072;7.036;2023-02-02T17:18:00;7.70;99.90
15426;DHT22;7812;50.072;7.036;2023-02-02T17:20:27;7.70;99.90
15426;DHT22;7812;50.072;7.036;2023-02-02T17:23:04;7.60;99.90
15426;DHT22;7812;50.072;7.036;2023-02-02T17:25:40;7.60;99.90
15426;DHT22;7812;50.072;7.036;2023-02-02T17:28:10;7.60;99.90
15426;DHT22;7812;50.072;7.036;2023-02-02T17:30:39;7.60;99.90
15426;DHT22;7812;50.072;7.036;2023-02-02T17:33:13;7.70;99.90
15426;DHT22;7812;50.072;7.036;2023-02-02T17:35:39;7.60;99.90
15426;DHT22;7812;50.072;7.036;2023-02-02T17:38:05;7.60;99.90
15426;DHT22;7812;50.072;7.036;2023-02-02T17:40:32;7.60;99.90
15426;DHT22;7812;50.072;7.036;2023-02-02T17:42:57;7.50;99.90
15426;DHT22;7812;50.072;7.036;2023-02-02T17:45:29;7.50;99.90
15426;DHT22;7812;50.072;7.036;2023-02-02T17:47:55;7.50;99.90
15426;DHT22;7812;50.072;7.036;2023-02-02T17:50:20;7.40;99.90
15426;DHT22;7812;50.072;7.036;2023-02-02T17:52:47;7.40;99.90
15426;DHT22;7812;50.072;7.036;2023-02-02T17:55:21;7.40;99.90
15426;DHT22;7812;50.072;7.036;2023-02-02T17:57:48;7.40;99.90
15426;DHT22;7812;50.072;7.036;2023-02-02T18:00:14;7.40;99.90
15426;DHT22;7812;50.072;7.036;2023-02-02T18:02:40;7.40;99.90
15426;DHT22;7812;50.072;7.036;2023-02-02T18:05:07;7.40;99.90
15426;DHT22;7812;50.072;7.036;2023-02-02T18:07:32;7.40;99.90
15426;DHT22;7812;50.072;7.036;2023-02-02T18:09:58;7.40;99.90
15426;DHT22;7812;50.072;7.036;2023-02-02T18:12:24;7.40;99.90
15426;DHT22;7812;50.072;7.036;2023-02-02T18:14:50;7.40;99.90
15426;DHT22;7812;50.072;7.036;2023-02-02T18:17:15;7.40;99.90
15426;DHT22;7812;50.072;7.036;2023-02-02T18:19:41;7.40;99.90
15426;DHT22;7812;50.072;7.036;2023-02-02T18:22:10;7.40;99.90
15426;DHT22;7812;50.072;7.036;2023-02-02T18:24:38;7.40;99.90
15426;DHT22;7812;50.072;7.036;2023-02-02T18:27:04;7.40;99.90
15426;DHT22;7812;50.072;7.036;2023-02-02T18:29:29;7.40;99.90
15426;DHT22;7812;50.072;7.036;2023-02-02T18:31:56;7.40;99.90
15426;DHT22;7812;50.072;7.036;2023-02-02T18:34:23;7.40;99.90
15426;DHT22;7812;50.072;7.036;2023-02-02T18:36:49;7.40;99.90
15426;DHT22;7812;50.072;7.036;2023-02-02T18:39:14;7.40;99.90
15426;DHT22;7812;50.072;7.036;2023-02-02T18:41:40;7.30;99.90
15426;DHT22;7812;50.072;7.036;2023-02-02T18:44:06;7.40;99.90
15426;DHT22;7812;50.072;7.036;2023-02-02T18:46:32;7.30;99.90
15426;DHT22;7812;50.072;7.036;2023-02-02T18:48:58;7.30;99.90
15426;DHT22;7812;50.072;7.036;2023-02-02T18:51:24;7.30;99.90
15426;DHT22;7812;50.072;7.036;2023-02-02T18:53:50;7.30;99.90
15426;DHT22;7812;50.072;7.036;2023-02-02T18:56:16;7.30;99.90
15426;DHT22;7812;50.072;7.036;2023-02-02T18:58:42;7.30;99.90
15426;DHT22;7812;50.072;7.036;2023-02-02T19:01:10;7.20;99.90
15426;DHT22;7812;50.072;7.036;2023-02-02T19:03:36;7.30;99.90
15426;DHT22;7812;50.072;7.036;2023-02-02T19:06:05;7.30;99.90
15426;DHT22;7812;50.072;7.036;2023-02-02T19:08:49;7.30;99.90
15426;DHT22;7812;50.072;7.036;2023-02-02T19:11:23;7.30;99.90
15426;DHT22;7812;50.072;7.036;2023-02-02T19:13:51;7.30;99.90
15426;DHT22;7812;50.072;7.036;2023-02-02T19:16:32;7.30;99.90
15426;DHT22;7812;50.072;7.036;2023-02-02T19:19:06;7.30;99.90
15426;DHT22;7812;50.072;7.036;2023-02-02T19:21:32;7.30;99.90